sensor_id;sensor_type;location;lat;lon;timestamp;temperature;humidity
15262;DHT22;7733;51.554;13.590;2023-12-20T00:01:35;6.30;99.90
15262;DHT22;7733;51.554;13.590;2023-12-20T00:04:02;6.20;99.90
15262;DHT22;7733;51.554;13.590;2023-12-20T00:06:28;6.20;99.90
15262;DHT22;7733;51.554;13.590;2023-12-20T00:08:53;6.20;99.90
15262;DHT22;7733;51.554;13.590;2023-12-20T00:11:19;6.20;99.90
15262;DHT22;7733;51.554;13.590;2023-12-20T00:13:45;6.20;99.90
15262;DHT22;7733;51.554;13.590;2023-12-20T00:16:10;6.20;99.90
15262;DHT22;7733;51.554;13.590;2023-12-20T00:18:36;6.20;99.90
15262;DHT22;7733;51.554;13.590;2023-12-20T00:21:02;6.20;99.90
15262;DHT22;7733;51.554;13.590;2023-12-20T00:23:28;6.10;99.90
15262;DHT22;7733;51.554;13.590;2023-12-20T00:25:54;6.10;99.90
15262;DHT22;7733;51.554;13.590;2023-12-20T00:28:19;6.20;99.90
15262;DHT22;7733;51.554;13.590;2023-12-20T00:30:45;6.10;99.90
15262;DHT22;7733;51.554;13.590;2023-12-20T00:33:11;6.10;99.90
15262;DHT22;7733;51.554;13.590;2023-12-20T00:35:37;6.20;99.90
15262;DHT22;7733;51.554;13.590;2023-12-20T00:38:02;6.20;99.90
15262;DHT22;7733;51.554;13.590;2023-12-20T00:40:30;6.10;99.90
15262;DHT22;7733;51.554;13.590;2023-12-20T00:42:56;6.10;99.90
15262;DHT22;7733;51.554;13.590;2023-12-20T00:45:21;6.10;99.90
15262;DHT22;7733;51.554;13.590;2023-12-20T00:47:47;6.10;99.90
15262;DHT22;7733;51.554;13.590;2023-12-20T00:50:13;6.10;99.90
15262;DHT22;7733;51.554;13.590;2023-12-20T00:52:38;6.10;99.90
15262;DHT22;7733;51.554;13.590;2023-12-20T00:55:04;6.10;99.90
15262;DHT22;7733;51.554;13.590;2023-12-20T00:57:31;6.10;99.90
15262;DHT22;7733;51.554;13.590;2023-12-20T00:59:56;6.10;99.90
15262;DHT22;7733;51.554;13.590;2023-12-20T01:02:22;6.10;99.90
15262;DHT22;7733;51.554;13.590;2023-12-20T01:04:48;6.10;99.90
15262;DHT22;7733;51.554;13.590;2023-12-20T01:07:13;6.10;99.90
15262;DHT22;7733;51.554;13.590;2023-12-20T01:09:39;6.10;99.90
15262;DHT22;7733;51.554;13.590;2023-12-20T01:12:05;6.10;99.90
15262;DHT22;7733;51.554;13.590;2023-12-20T01:14:31;6.10;99.90
15262;DHT22;7733;51.554;13.590;2023-12-20T01:16:56;6.20;99.90
15262;DHT22;7733;51.554;13.590;2023-12-20T01:19:22;6.10;99.90
15262;DHT22;7733;51.554;13.590;2023-12-20T01:21:50;6.10;99.90
15262;DHT22;7733;51.554;13.590;2023-12-20T01:24:15;6.10;99.90
15262;DHT22;7733;51.554;13.590;2023-12-20T01:26:41;6.00;99.90
15262;DHT22;7733;51.554;13.590;2023-12-20T01:29:07;6.00;99.90
15262;DHT22;7733;51.554;13.590;2023-12-20T01:31:33;6.10;99.90
15262;DHT22;7733;51.554;13.590;2023-12-20T01:33:59;6.20;99.90
15262;DHT22;7733;51.554;13.590;2023-12-20T01:36:24;6.10;99.90
15262;DHT22;7733;51.554;13.590;2023-12-20T01:38:50;6.10;99.90
15262;DHT22;7733;51.554;13.590;2023-12-20T01:41:16;6.10;99.90
15262;DHT22;7733;51.554;13.590;2023-12-20T01:43:41;6.10;99.90
15262;DHT22;7733;51.554;13.590;2023-12-20T01:46:08;6.00;99.90
15262;DHT22;7733;51.554;13.590;2023-12-20T01:48:34;6.10;99.90
15262;DHT22;7733;51.554;13.590;2023-12-20T01:51:02;6.10;99.90
15262;DHT22;7733;51.554;13.590;2023-12-20T01:53:28;6.10;99.90
15262;DHT22;7733;51.554;13.590;2023-12-20T01:55:56;6.10;99.90
15262;DHT22;7733;51.554;13.590;2023-12-20T01:58:24;6.00;99.90
15262;DHT22;7733;51.554;13.590;2023-12-20T02:00:51;6.10;99.90
15262;DHT22;7733;51.554;13.590;2023-12-20T02:03:18;6.00;99.90
15262;DHT22;7733;51.554;13.590;2023-12-20T02:05:44;6.00;99.90
15262;DHT22;7733;51.554;13.590;2023-12-20T02:08:11;6.00;99.90
15262;DHT22;7733;51.554;13.590;2023-12-20T02:10:37;6.00;99.90
15262;DHT22;7733;51.554;13.590;2023-12-20T02:13:03;6.00;99.90
15262;DHT22;7733;51.554;13.590;2023-12-20T02:15:29;6.00;99.90
15262;DHT22;7733;51.554;13.590;2023-12-20T02:17:55;6.00;99.90
15262;DHT22;7733;51.554;13.590;2023-12-20T02:20:21;6.00;99.90
15262;DHT22;7733;51.554;13.590;2023-12-20T02:22:47;6.00;99.90
15262;DHT22;7733;51.554;13.590;2023-12-20T02:25:13;5.90;99.90
15262;DHT22;7733;51.554;13.590;2023-12-20T02:27:39;6.00;99.90
15262;DHT22;7733;51.554;13.590;2023-12-20T02:30:07;6.00;99.90
15262;DHT22;7733;51.554;13.590;2023-12-20T02:32:34;5.90;99.90
15262;DHT22;7733;51.554;13.590;2023-12-20T02:34:59;6.00;99.90
15262;DHT22;7733;51.554;13.590;2023-12-20T02:37:25;6.00;99.90
15262;DHT22;7733;51.554;13.590;2023-12-20T02:39:51;5.90;99.90
15262;DHT22;7733;51.554;13.590;2023-12-20T02:42:16;5.90;99.90
15262;DHT22;7733;51.554;13.590;2023-12-20T02:44:42;5.90;99.90
15262;DHT22;7733;51.554;13.590;2023-12-20T02:47:08;5.90;99.90
15262;DHT22;7733;51.554;13.590;2023-12-20T02:49:34;5.90;99.90
15262;DHT22;7733;51.554;13.590;2023-12-20T02:51:59;5.90;99.90
15262;DHT22;7733;51.554;13.590;2023-12-20T02:54:25;5.90;99.90
15262;DHT22;7733;51.554;13.590;2023-12-20T02:56:51;5.90;99.90
15262;DHT22;7733;51.554;13.590;2023-12-20T02:59:16;5.90;99.90
15262;DHT22;7733;51.554;13.590;2023-12-20T03:01:45;5.90;99.90
15262;DHT22;7733;51.554;13.590;2023-12-20T03:04:12;5.90;99.90
15262;DHT22;7733;51.554;13.590;2023-12-20T03:06:38;5.90;99.90
15262;DHT22;7733;51.554;13.590;2023-12-20T03:09:04;5.90;99.90
15262;DHT22;7733;51.554;13.590;2023-12-20T03:11:30;5.90;99.90
15262;DHT22;7733;51.554;13.590;2023-12-20T03:13:56;5.90;99.90
15262;DHT22;7733;51.554;13.590;2023-12-20T03:16:23;5.90;99.90
15262;DHT22;7733;51.554;13.590;2023-12-20T03:18:48;5.90;99.90
15262;DHT22;7733;51.554;13.590;2023-12-20T03:21:14;5.90;99.90
15262;DHT22;7733;51.554;13.590;2023-12-20T03:23:40;5.90;99.90
15262;DHT22;7733;51.554;13.590;2023-12-20T03:26:07;5.90;99.90
15262;DHT22;7733;51.554;13.590;2023-12-20T03:28:34;5.90;99.90
15262;DHT22;7733;51.554;13.590;2023-12-20T03:31:00;5.90;99.90
15262;DHT22;7733;51.554;13.590;2023-12-20T03:33:25;5.90;99.90
15262;DHT22;7733;51.554;13.590;2023-12-20T03:35:51;5.90;99.90
15262;DHT22;7733;51.554;13.590;2023-12-20T03:38:17;5.90;99.90
15262;DHT22;7733;51.554;13.590;2023-12-20T03:40:42;5.90;99.90
15262;DHT22;7733;51.554;13.590;2023-12-20T03:43:08;5.90;99.90
15262;DHT22;7733;51.554;13.590;2023-12-20T03:45:34;5.90;99.90
15262;DHT22;7733;51.554;13.590;2023-12-20T03:48:00;5.90;99.90
15262;DHT22;7733;51.554;13.590;2023-12-20T03:50:26;5.90;99.90
15262;DHT22;7733;51.554;13.590;2023-12-20T03:52:52;5.90;99.90
15262;DHT22;7733;51.554;13.590;2023-12-20T03:55:18;5.90;99.90
15262;DHT22;7733;51.554;13.590;2023-12-20T03:57:44;5.90;99.90
15262;DHT22;7733;51.554;13.590;2023-12-20T04:00:11;5.90;99.90
15262;DHT22;7733;51.554;13.590;2023-12-20T04:02:40;5.90;99.90
15262;DHT22;7733;51.554;13.590;2023-12-20T04:05:08;5.90;99.90
15262;DHT22;7733;51.554;13.590;2023-12-20T04:07:37;5.90;99.90
15262;DHT22;7733;51.554;13.590;2023-12-20T04:10:04;5.90;99.90
15262;DHT22;7733;51.554;13.590;2023-12-20T04:12:31;5.90;99.90
15262;DHT22;7733;51.554;13.590;2023-12-20T04:14:58;5.90;99.90
15262;DHT22;7733;51.554;13.590;2023-12-20T04:17:23;5.90;99.90
15262;DHT22;7733;51.554;13.590;2023-12-20T04:19:52;5.90;99.90
15262;DHT22;7733;51.554;13.590;2023-12-20T04:22:18;5.90;99.90
15262;DHT22;7733;51.554;13.590;2023-12-20T04:24:44;5.90;99.90
15262;DHT22;7733;51.554;13.590;2023-12-20T04:27:10;5.90;99.90
15262;DHT22;7733;51.554;13.590;2023-12-20T04:29:36;5.90;99.90
15262;DHT22;7733;51.554;13.590;2023-12-20T04:32:02;5.90;99.90
15262;DHT22;7733;51.554;13.590;2023-12-20T04:34:29;5.90;99.90
15262;DHT22;7733;51.554;13.590;2023-12-20T04:36:55;5.90;99.90
15262;DHT22;7733;51.554;13.590;2023-12-20T04:39:20;5.90;99.90
15262;DHT22;7733;51.554;13.590;2023-12-20T04:41:47;5.90;99.90
15262;DHT22;7733;51.554;13.590;2023-12-20T04:44:15;5.90;99.90
15262;DHT22;7733;51.554;13.590;2023-12-20T04:46:41;5.90;99.90
15262;DHT22;7733;51.554;13.590;2023-12-20T04:49:07;5.90;99.90
15262;DHT22;7733;51.554;13.590;2023-12-20T04:51:33;5.90;99.90
15262;DHT22;7733;51.554;13.590;2023-12-20T04:54:00;5.90;99.90
15262;DHT22;7733;51.554;13.590;2023-12-20T04:56:26;5.90;99.90
15262;DHT22;7733;51.554;13.590;2023-12-20T04:58:52;5.90;99.90
15262;DHT22;7733;51.554;13.590;2023-12-20T05:01:18;5.90;99.90
15262;DHT22;7733;51.554;13.590;2023-12-20T05:03:43;5.90;99.90
15262;DHT22;7733;51.554;13.590;2023-12-20T05:06:10;5.90;99.90
15262;DHT22;7733;51.554;13.590;2023-12-20T05:08:36;5.90;99.90
15262;DHT22;7733;51.554;13.590;2023-12-20T05:11:02;5.90;99.90
15262;DHT22;7733;51.554;13.590;2023-12-20T05:13:28;5.90;99.90
15262;DHT22;7733;51.554;13.590;2023-12-20T05:15:54;5.80;99.90
15262;DHT22;7733;51.554;13.590;2023-12-20T05:18:21;5.80;99.90
15262;DHT22;7733;51.554;13.590;2023-12-20T05:20:48;5.80;99.90
15262;DHT22;7733;51.554;13.590;2023-12-20T05:23:15;5.90;99.90
15262;DHT22;7733;51.554;13.590;2023-12-20T05:25:41;5.80;99.90
15262;DHT22;7733;51.554;13.590;2023-12-20T05:28:07;5.80;99.90
15262;DHT22;7733;51.554;13.590;2023-12-20T05:30:32;5.80;99.90
15262;DHT22;7733;51.554;13.590;2023-12-20T05:32:58;5.80;99.90
15262;DHT22;7733;51.554;13.590;2023-12-20T05:35:24;5.80;99.90
15262;DHT22;7733;51.554;13.590;2023-12-20T05:37:50;5.80;99.90
15262;DHT22;7733;51.554;13.590;2023-12-20T05:40:15;5.80;99.90
15262;DHT22;7733;51.554;13.590;2023-12-20T05:42:41;5.80;99.90
15262;DHT22;7733;51.554;13.590;2023-12-20T05:45:07;5.80;99.90
15262;DHT22;7733;51.554;13.590;2023-12-20T05:47:33;5.80;99.90
15262;DHT22;7733;51.554;13.590;2023-12-20T05:49:59;5.80;99.90
15262;DHT22;7733;51.554;13.590;2023-12-20T05:52:24;5.80;99.90
15262;DHT22;7733;51.554;13.590;2023-12-20T05:54:50;5.80;99.90
15262;DHT22;7733;51.554;13.590;2023-12-20T05:57:16;5.80;99.90
15262;DHT22;7733;51.554;13.590;2023-12-20T05:59:42;5.80;99.90
15262;DHT22;7733;51.554;13.590;2023-12-20T06:02:07;5.80;99.90
15262;DHT22;7733;51.554;13.590;2023-12-20T06:04:33;5.80;99.90
15262;DHT22;7733;51.554;13.590;2023-12-20T06:06:59;5.80;99.90
15262;DHT22;7733;51.554;13.590;2023-12-20T06:09:27;5.80;99.90
15262;DHT22;7733;51.554;13.590;2023-12-20T06:11:53;5.80;99.90
15262;DHT22;7733;51.554;13.590;2023-12-20T06:14:18;5.80;99.90
15262;DHT22;7733;51.554;13.590;2023-12-20T06:16:47;5.80;99.90
15262;DHT22;7733;51.554;13.590;2023-12-20T06:19:12;5.80;99.90
15262;DHT22;7733;51.554;13.590;2023-12-20T06:21:38;5.70;99.90
15262;DHT22;7733;51.554;13.590;2023-12-20T06:24:04;5.70;99.90
15262;DHT22;7733;51.554;13.590;2023-12-20T06:26:30;5.70;99.90
15262;DHT22;7733;51.554;13.590;2023-12-20T06:28:56;5.70;99.90
15262;DHT22;7733;51.554;13.590;2023-12-20T06:31:21;5.70;99.90
15262;DHT22;7733;51.554;13.590;2023-12-20T06:33:47;5.70;99.90
15262;DHT22;7733;51.554;13.590;2023-12-20T06:36:15;5.70;99.90
15262;DHT22;7733;51.554;13.590;2023-12-20T06:38:40;5.60;99.90
15262;DHT22;7733;51.554;13.590;2023-12-20T06:41:07;5.60;99.90
15262;DHT22;7733;51.554;13.590;2023-12-20T06:43:33;5.50;99.90
15262;DHT22;7733;51.554;13.590;2023-12-20T06:46:00;5.40;99.90
15262;DHT22;7733;51.554;13.590;2023-12-20T06:48:26;5.50;99.90
15262;DHT22;7733;51.554;13.590;2023-12-20T06:50:52;5.50;99.90
15262;DHT22;7733;51.554;13.590;2023-12-20T06:53:18;5.40;99.90
15262;DHT22;7733;51.554;13.590;2023-12-20T06:55:44;5.40;99.90
15262;DHT22;7733;51.554;13.590;2023-12-20T06:58:09;5.30;99.90
15262;DHT22;7733;51.554;13.590;2023-12-20T07:00:35;5.20;99.90
15262;DHT22;7733;51.554;13.590;2023-12-20T07:03:01;5.20;99.90
15262;DHT22;7733;51.554;13.590;2023-12-20T07:05:27;5.20;99.90
15262;DHT22;7733;51.554;13.590;2023-12-20T07:07:53;5.20;99.90
15262;DHT22;7733;51.554;13.590;2023-12-20T07:10:19;5.20;99.90
15262;DHT22;7733;51.554;13.590;2023-12-20T07:12:45;5.20;99.90
15262;DHT22;7733;51.554;13.590;2023-12-20T07:15:11;5.20;99.90
15262;DHT22;7733;51.554;13.590;2023-12-20T07:17:37;5.20;99.90
15262;DHT22;7733;51.554;13.590;2023-12-20T07:20:03;5.20;99.90
15262;DHT22;7733;51.554;13.590;2023-12-20T07:22:30;5.20;99.90
15262;DHT22;7733;51.554;13.590;2023-12-20T07:24:59;5.20;99.90
15262;DHT22;7733;51.554;13.590;2023-12-20T07:27:26;5.20;99.90
15262;DHT22;7733;51.554;13.590;2023-12-20T07:29:52;5.20;99.90
15262;DHT22;7733;51.554;13.590;2023-12-20T07:32:18;5.20;99.90
15262;DHT22;7733;51.554;13.590;2023-12-20T07:34:44;5.10;99.90
15262;DHT22;7733;51.554;13.590;2023-12-20T07:37:10;5.10;99.90
15262;DHT22;7733;51.554;13.590;2023-12-20T07:39:39;5.10;99.90
15262;DHT22;7733;51.554;13.590;2023-12-20T07:42:05;5.10;99.90
15262;DHT22;7733;51.554;13.590;2023-12-20T07:44:32;5.20;99.90
15262;DHT22;7733;51.554;13.590;2023-12-20T07:46:57;5.20;99.90
15262;DHT22;7733;51.554;13.590;2023-12-20T07:49:23;5.20;99.90
15262;DHT22;7733;51.554;13.590;2023-12-20T07:51:49;5.20;99.90
15262;DHT22;7733;51.554;13.590;2023-12-20T07:54:15;5.30;99.90
15262;DHT22;7733;51.554;13.590;2023-12-20T07:56:41;5.20;99.90
15262;DHT22;7733;51.554;13.590;2023-12-20T07:59:07;5.30;99.90
15262;DHT22;7733;51.554;13.590;2023-12-20T08:01:33;5.30;99.90
15262;DHT22;7733;51.554;13.590;2023-12-20T08:03:59;5.40;99.90
15262;DHT22;7733;51.554;13.590;2023-12-20T08:06:25;5.50;99.90
15262;DHT22;7733;51.554;13.590;2023-12-20T08:08:50;5.60;99.90
15262;DHT22;7733;51.554;13.590;2023-12-20T08:11:16;5.60;99.90
15262;DHT22;7733;51.554;13.590;2023-12-20T08:13:42;5.60;99.90
15262;DHT22;7733;51.554;13.590;2023-12-20T08:16:08;5.70;99.90
15262;DHT22;7733;51.554;13.590;2023-12-20T08:18:34;5.70;99.90
15262;DHT22;7733;51.554;13.590;2023-12-20T08:21:00;5.70;99.90
15262;DHT22;7733;51.554;13.590;2023-12-20T08:23:26;5.70;99.90
15262;DHT22;7733;51.554;13.590;2023-12-20T08:25:52;5.70;99.90
15262;DHT22;7733;51.554;13.590;2023-12-20T08:28:18;5.60;99.90
15262;DHT22;7733;51.554;13.590;2023-12-20T08:30:44;5.70;99.90
15262;DHT22;7733;51.554;13.590;2023-12-20T08:33:10;5.80;99.90
15262;DHT22;7733;51.554;13.590;2023-12-20T08:35:41;5.80;99.90
15262;DHT22;7733;51.554;13.590;2023-12-20T08:38:06;5.80;99.90
15262;DHT22;7733;51.554;13.590;2023-12-20T08:40:33;5.80;99.90
15262;DHT22;7733;51.554;13.590;2023-12-20T08:42:59;5.80;99.90
15262;DHT22;7733;51.554;13.590;2023-12-20T08:45:24;5.80;99.90
15262;DHT22;7733;51.554;13.590;2023-12-20T08:47:50;5.90;99.90
15262;DHT22;7733;51.554;13.590;2023-12-20T08:50:16;5.80;99.90
15262;DHT22;7733;51.554;13.590;2023-12-20T08:52:42;5.90;99.90
15262;DHT22;7733;51.554;13.590;2023-12-20T08:55:08;5.90;99.90
15262;DHT22;7733;51.554;13.590;2023-12-20T08:57:35;5.90;99.90
15262;DHT22;7733;51.554;13.590;2023-12-20T09:00:02;5.90;99.90
15262;DHT22;7733;51.554;13.590;2023-12-20T09:02:28;6.00;99.90
15262;DHT22;7733;51.554;13.590;2023-12-20T09:04:54;6.00;99.90
15262;DHT22;7733;51.554;13.590;2023-12-20T09:07:27;6.00;99.90
15262;DHT22;7733;51.554;13.590;2023-12-20T09:09:55;6.00;99.90
15262;DHT22;7733;51.554;13.590;2023-12-20T09:12:22;5.90;99.90
15262;DHT22;7733;51.554;13.590;2023-12-20T09:14:49;6.00;99.90
15262;DHT22;7733;51.554;13.590;2023-12-20T09:17:17;6.00;99.90
15262;DHT22;7733;51.554;13.590;2023-12-20T09:19:44;6.00;99.90
15262;DHT22;7733;51.554;13.590;2023-12-20T09:22:10;6.00;99.90
15262;DHT22;7733;51.554;13.590;2023-12-20T09:24:36;6.10;99.90
15262;DHT22;7733;51.554;13.590;2023-12-20T09:27:02;6.10;99.90
15262;DHT22;7733;51.554;13.590;2023-12-20T09:29:29;6.10;99.90
15262;DHT22;7733;51.554;13.590;2023-12-20T09:31:55;6.20;99.90
15262;DHT22;7733;51.554;13.590;2023-12-20T09:34:21;6.10;99.90
15262;DHT22;7733;51.554;13.590;2023-12-20T09:36:47;6.20;99.90
15262;DHT22;7733;51.554;13.590;2023-12-20T09:39:17;6.10;99.90
15262;DHT22;7733;51.554;13.590;2023-12-20T09:42:06;6.20;99.90
15262;DHT22;7733;51.554;13.590;2023-12-20T09:44:34;6.20;99.90
15262;DHT22;7733;51.554;13.590;2023-12-20T09:47:02;6.20;99.90
15262;DHT22;7733;51.554;13.590;2023-12-20T09:49:30;6.20;99.90
15262;DHT22;7733;51.554;13.590;2023-12-20T09:51:57;6.20;99.90
15262;DHT22;7733;51.554;13.590;2023-12-20T09:54:26;6.20;99.90
15262;DHT22;7733;51.554;13.590;2023-12-20T09:56:54;6.20;99.90
15262;DHT22;7733;51.554;13.590;2023-12-20T09:59:20;6.30;99.90
15262;DHT22;7733;51.554;13.590;2023-12-20T10:01:45;6.30;99.90
15262;DHT22;7733;51.554;13.590;2023-12-20T10:04:12;6.30;99.90
15262;DHT22;7733;51.554;13.590;2023-12-20T10:06:42;6.30;99.90
15262;DHT22;7733;51.554;13.590;2023-12-20T10:09:12;6.30;99.90
15262;DHT22;7733;51.554;13.590;2023-12-20T10:11:38;6.40;99.90
15262;DHT22;7733;51.554;13.590;2023-12-20T10:14:05;6.50;99.90
15262;DHT22;7733;51.554;13.590;2023-12-20T10:16:33;6.70;99.90
15262;DHT22;7733;51.554;13.590;2023-12-20T10:19:00;6.80;99.90
15262;DHT22;7733;51.554;13.590;2023-12-20T10:21:26;6.80;99.90
15262;DHT22;7733;51.554;13.590;2023-12-20T10:23:54;6.80;99.90
15262;DHT22;7733;51.554;13.590;2023-12-20T10:26:27;6.70;99.90
15262;DHT22;7733;51.554;13.590;2023-12-20T10:28:56;6.70;99.90
15262;DHT22;7733;51.554;13.590;2023-12-20T10:31:29;6.70;99.90
15262;DHT22;7733;51.554;13.590;2023-12-20T10:34:00;6.70;99.90
15262;DHT22;7733;51.554;13.590;2023-12-20T10:36:29;6.70;99.90
15262;DHT22;7733;51.554;13.590;2023-12-20T10:38:57;6.80;99.90
15262;DHT22;7733;51.554;13.590;2023-12-20T10:41:31;6.80;99.90
15262;DHT22;7733;51.554;13.590;2023-12-20T10:44:03;6.80;99.90
15262;DHT22;7733;51.554;13.590;2023-12-20T10:46:33;6.80;99.90
15262;DHT22;7733;51.554;13.590;2023-12-20T10:49:02;6.80;99.90
15262;DHT22;7733;51.554;13.590;2023-12-20T10:51:28;6.80;99.90
15262;DHT22;7733;51.554;13.590;2023-12-20T10:53:57;6.90;99.90
15262;DHT22;7733;51.554;13.590;2023-12-20T10:56:23;7.00;99.90
15262;DHT22;7733;51.554;13.590;2023-12-20T10:58:49;7.00;99.90
15262;DHT22;7733;51.554;13.590;2023-12-20T11:01:17;7.00;99.90
15262;DHT22;7733;51.554;13.590;2023-12-20T11:03:50;7.10;99.90
15262;DHT22;7733;51.554;13.590;2023-12-20T11:11:46;7.20;99.90
15262;DHT22;7733;51.554;13.590;2023-12-20T11:17:08;7.20;99.90
15262;DHT22;7733;51.554;13.590;2023-12-20T11:22:22;7.20;99.90
15262;DHT22;7733;51.554;13.590;2023-12-20T11:24:51;7.20;99.90
15262;DHT22;7733;51.554;13.590;2023-12-20T11:27:18;7.20;99.90
15262;DHT22;7733;51.554;13.590;2023-12-20T11:29:52;7.20;99.90
15262;DHT22;7733;51.554;13.590;2023-12-20T11:32:28;7.20;99.90
15262;DHT22;7733;51.554;13.590;2023-12-20T11:37:37;7.20;99.90
15262;DHT22;7733;51.554;13.590;2023-12-20T11:40:08;7.20;99.90
15262;DHT22;7733;51.554;13.590;2023-12-20T11:42:41;7.30;99.90
15262;DHT22;7733;51.554;13.590;2023-12-20T11:45:12;7.20;99.90
15262;DHT22;7733;51.554;13.590;2023-12-20T11:47:46;7.20;99.90
15262;DHT22;7733;51.554;13.590;2023-12-20T11:50:20;7.20;99.90
15262;DHT22;7733;51.554;13.590;2023-12-20T11:52:47;7.20;99.90
15262;DHT22;7733;51.554;13.590;2023-12-20T11:55:14;7.20;99.90
15262;DHT22;7733;51.554;13.590;2023-12-20T11:57:41;7.20;99.90
15262;DHT22;7733;51.554;13.590;2023-12-20T12:00:08;7.30;99.90
15262;DHT22;7733;51.554;13.590;2023-12-20T12:02:34;7.20;99.90
15262;DHT22;7733;51.554;13.590;2023-12-20T12:05:00;7.20;99.90
15262;DHT22;7733;51.554;13.590;2023-12-20T12:07:25;7.20;99.90
15262;DHT22;7733;51.554;13.590;2023-12-20T12:09:51;7.30;99.90
15262;DHT22;7733;51.554;13.590;2023-12-20T12:12:18;7.30;99.90
15262;DHT22;7733;51.554;13.590;2023-12-20T12:14:45;7.30;99.90
15262;DHT22;7733;51.554;13.590;2023-12-20T12:17:12;7.30;99.90
15262;DHT22;7733;51.554;13.590;2023-12-20T12:19:39;7.30;99.90
15262;DHT22;7733;51.554;13.590;2023-12-20T12:22:15;7.30;99.90
15262;DHT22;7733;51.554;13.590;2023-12-20T12:24:46;7.30;99.90
15262;DHT22;7733;51.554;13.590;2023-12-20T12:27:13;7.30;99.90
15262;DHT22;7733;51.554;13.590;2023-12-20T12:29:39;7.30;99.90
15262;DHT22;7733;51.554;13.590;2023-12-20T12:32:09;7.30;99.90
15262;DHT22;7733;51.554;13.590;2023-12-20T12:34:35;7.30;99.90
15262;DHT22;7733;51.554;13.590;2023-12-20T12:37:02;7.30;99.90
15262;DHT22;7733;51.554;13.590;2023-12-20T12:39:30;7.30;99.90
15262;DHT22;7733;51.554;13.590;2023-12-20T12:41:56;7.30;99.90
15262;DHT22;7733;51.554;13.590;2023-12-20T12:44:22;7.30;99.90
15262;DHT22;7733;51.554;13.590;2023-12-20T12:46:51;7.30;99.90
15262;DHT22;7733;51.554;13.590;2023-12-20T12:49:19;7.30;99.90
15262;DHT22;7733;51.554;13.590;2023-12-20T12:51:47;7.30;99.90
15262;DHT22;7733;51.554;13.590;2023-12-20T12:54:13;7.30;99.90
15262;DHT22;7733;51.554;13.590;2023-12-20T12:56:41;7.30;99.90
15262;DHT22;7733;51.554;13.590;2023-12-20T12:59:07;7.30;99.90
15262;DHT22;7733;51.554;13.590;2023-12-20T13:01:32;7.30;99.90
15262;DHT22;7733;51.554;13.590;2023-12-20T13:03:58;7.30;99.90
15262;DHT22;7733;51.554;13.590;2023-12-20T13:06:24;7.40;99.90
15262;DHT22;7733;51.554;13.590;2023-12-20T13:08:50;7.30;99.90
15262;DHT22;7733;51.554;13.590;2023-12-20T13:11:15;7.30;99.90
15262;DHT22;7733;51.554;13.590;2023-12-20T13:13:41;7.30;99.90
15262;DHT22;7733;51.554;13.590;2023-12-20T13:16:07;7.30;99.90
15262;DHT22;7733;51.554;13.590;2023-12-20T13:18:33;7.30;99.90
15262;DHT22;7733;51.554;13.590;2023-12-20T13:20:59;7.30;99.90
15262;DHT22;7733;51.554;13.590;2023-12-20T13:23:24;7.30;99.90
15262;DHT22;7733;51.554;13.590;2023-12-20T13:25:50;7.30;99.90
15262;DHT22;7733;51.554;13.590;2023-12-20T13:28:16;7.30;99.90
15262;DHT22;7733;51.554;13.590;2023-12-20T13:30:42;7.30;99.90
15262;DHT22;7733;51.554;13.590;2023-12-20T13:33:08;7.30;99.90
15262;DHT22;7733;51.554;13.590;2023-12-20T13:35:34;7.30;99.90
15262;DHT22;7733;51.554;13.590;2023-12-20T13:38:00;7.30;99.90
15262;DHT22;7733;51.554;13.590;2023-12-20T13:40:26;7.30;99.90
15262;DHT22;7733;51.554;13.590;2023-12-20T13:42:52;7.30;99.90
15262;DHT22;7733;51.554;13.590;2023-12-20T13:45:18;7.40;99.90
15262;DHT22;7733;51.554;13.590;2023-12-20T13:47:43;7.30;99.90
15262;DHT22;7733;51.554;13.590;2023-12-20T13:50:09;7.40;99.90
15262;DHT22;7733;51.554;13.590;2023-12-20T13:52:35;7.40;99.90
15262;DHT22;7733;51.554;13.590;2023-12-20T13:55:01;7.40;99.90
15262;DHT22;7733;51.554;13.590;2023-12-20T13:57:27;7.30;99.90
15262;DHT22;7733;51.554;13.590;2023-12-20T13:59:55;7.30;99.90
15262;DHT22;7733;51.554;13.590;2023-12-20T14:02:23;7.40;99.90
15262;DHT22;7733;51.554;13.590;2023-12-20T14:04:49;7.30;99.90
15262;DHT22;7733;51.554;13.590;2023-12-20T14:07:14;7.40;99.90
15262;DHT22;7733;51.554;13.590;2023-12-20T14:09:41;7.40;99.90
15262;DHT22;7733;51.554;13.590;2023-12-20T14:12:11;7.40;99.90
15262;DHT22;7733;51.554;13.590;2023-12-20T14:14:37;7.40;99.90
15262;DHT22;7733;51.554;13.590;2023-12-20T14:17:03;7.40;99.90
15262;DHT22;7733;51.554;13.590;2023-12-20T14:19:32;7.40;99.90
15262;DHT22;7733;51.554;13.590;2023-12-20T14:21:58;7.40;99.90
15262;DHT22;7733;51.554;13.590;2023-12-20T14:24:27;7.40;99.90
15262;DHT22;7733;51.554;13.590;2023-12-20T14:26:53;7.40;99.90
15262;DHT22;7733;51.554;13.590;2023-12-20T14:29:19;7.50;99.90
15262;DHT22;7733;51.554;13.590;2023-12-20T14:31:45;7.40;99.90
15262;DHT22;7733;51.554;13.590;2023-12-20T14:34:10;7.50;99.90
15262;DHT22;7733;51.554;13.590;2023-12-20T14:36:37;7.50;99.90
15262;DHT22;7733;51.554;13.590;2023-12-20T14:39:03;7.50;99.90
15262;DHT22;7733;51.554;13.590;2023-12-20T14:41:30;7.50;99.90
15262;DHT22;7733;51.554;13.590;2023-12-20T14:43:56;7.50;99.90
15262;DHT22;7733;51.554;13.590;2023-12-20T14:46:22;7.40;99.90
15262;DHT22;7733;51.554;13.590;2023-12-20T14:48:47;7.50;99.90
15262;DHT22;7733;51.554;13.590;2023-12-20T14:51:15;7.40;99.90
15262;DHT22;7733;51.554;13.590;2023-12-20T14:53:40;7.40;99.90
15262;DHT22;7733;51.554;13.590;2023-12-20T14:56:07;7.40;99.90
15262;DHT22;7733;51.554;13.590;2023-12-20T14:58:33;7.40;99.90
15262;DHT22;7733;51.554;13.590;2023-12-20T15:01:00;7.40;99.90
15262;DHT22;7733;51.554;13.590;2023-12-20T15:03:26;7.40;99.90
15262;DHT22;7733;51.554;13.590;2023-12-20T15:05:52;7.40;99.90
15262;DHT22;7733;51.554;13.590;2023-12-20T15:08:17;7.40;99.90
15262;DHT22;7733;51.554;13.590;2023-12-20T15:10:43;7.30;99.90
15262;DHT22;7733;51.554;13.590;2023-12-20T15:13:09;7.30;99.90
15262;DHT22;7733;51.554;13.590;2023-12-20T15:15:34;7.30;99.90
15262;DHT22;7733;51.554;13.590;2023-12-20T15:18:00;7.20;99.90
15262;DHT22;7733;51.554;13.590;2023-12-20T15:20:28;7.20;99.90
15262;DHT22;7733;51.554;13.590;2023-12-20T15:22:53;7.20;99.90
15262;DHT22;7733;51.554;13.590;2023-12-20T15:25:20;7.20;99.90
15262;DHT22;7733;51.554;13.590;2023-12-20T15:27:48;7.10;99.90
15262;DHT22;7733;51.554;13.590;2023-12-20T15:30:21;7.10;99.90
15262;DHT22;7733;51.554;13.590;2023-12-20T15:32:49;7.00;99.90
15262;DHT22;7733;51.554;13.590;2023-12-20T15:35:16;7.00;99.90
15262;DHT22;7733;51.554;13.590;2023-12-20T15:37:41;7.00;99.90
15262;DHT22;7733;51.554;13.590;2023-12-20T15:40:08;6.90;99.90
15262;DHT22;7733;51.554;13.590;2023-12-20T15:42:38;6.90;99.90
15262;DHT22;7733;51.554;13.590;2023-12-20T15:45:05;6.90;99.90
15262;DHT22;7733;51.554;13.590;2023-12-20T15:47:33;6.80;99.90
15262;DHT22;7733;51.554;13.590;2023-12-20T15:50:01;6.70;99.90
15262;DHT22;7733;51.554;13.590;2023-12-20T15:52:27;6.70;99.90
15262;DHT22;7733;51.554;13.590;2023-12-20T15:54:53;6.60;99.90